sensor_id;sensor_type;location;lat;lon;timestamp;pressure;altitude;pressure_sealevel;temperature;humidity
9905;BME280;4991;43.566;27.820;2023-02-15T00:01:46;99953.44;;;2.82;100.00
9905;BME280;4991;43.566;27.820;2023-02-15T00:04:16;99953.88;;;2.79;100.00
9905;BME280;4991;43.566;27.820;2023-02-15T00:06:42;99954.09;;;2.77;100.00
9905;BME280;4991;43.566;27.820;2023-02-15T00:09:09;99953.06;;;2.78;100.00
9905;BME280;4991;43.566;27.820;2023-02-15T00:11:35;99961.59;;;2.75;100.00
9905;BME280;4991;43.566;27.820;2023-02-15T00:14:23;99962.63;;;2.74;100.00
9905;BME280;4991;43.566;27.820;2023-02-15T00:16:50;99957.00;;;2.76;100.00
9905;BME280;4991;43.566;27.820;2023-02-15T00:19:18;99956.06;;;2.70;100.00
9905;BME280;4991;43.566;27.820;2023-02-15T00:21:46;99958.59;;;2.65;100.00
9905;BME280;4991;43.566;27.820;2023-02-15T00:24:14;99955.53;;;2.61;100.00
9905;BME280;4991;43.566;27.820;2023-02-15T00:26:41;99958.44;;;2.60;100.00
9905;BME280;4991;43.566;27.820;2023-02-15T00:29:08;99958.44;;;2.60;100.00
9905;BME280;4991;43.566;27.820;2023-02-15T00:31:35;99959.09;;;2.55;100.00
9905;BME280;4991;43.566;27.820;2023-02-15T00:34:15;99954.47;;;2.44;100.00
9905;BME280;4991;43.566;27.820;2023-02-15T00:36:42;99950.56;;;2.40;100.00
9905;BME280;4991;43.566;27.820;2023-02-15T00:39:08;99956.84;;;2.34;100.00
9905;BME280;4991;43.566;27.820;2023-02-15T00:41:35;99962.22;;;2.34;100.00
9905;BME280;4991;43.566;27.820;2023-02-15T00:44:00;99967.75;;;2.39;100.00
9905;BME280;4991;43.566;27.820;2023-02-15T00:46:26;99972.31;;;2.39;100.00
9905;BME280;4991;43.566;27.820;2023-02-15T00:48:52;99964.69;;;2.36;100.00
9905;BME280;4991;43.566;27.820;2023-02-15T00:51:18;99964.09;;;2.34;100.00
9905;BME280;4991;43.566;27.820;2023-02-15T00:53:44;99956.09;;;2.27;100.00
9905;BME280;4991;43.566;27.820;2023-02-15T00:56:10;99957.75;;;2.28;100.00
9905;BME280;4991;43.566;27.820;2023-02-15T00:58:36;99952.00;;;2.25;100.00
9905;BME280;4991;43.566;27.820;2023-02-15T01:01:08;99957.66;;;2.17;100.00
9905;BME280;4991;43.566;27.820;2023-02-15T01:03:34;99955.41;;;2.14;100.00
9905;BME280;4991;43.566;27.820;2023-02-15T01:06:01;99960.56;;;2.15;100.00
9905;BME280;4991;43.566;27.820;2023-02-15T01:08:27;99959.75;;;2.15;100.00
9905;BME280;4991;43.566;27.820;2023-02-15T01:10:53;99962.44;;;2.15;100.00
9905;BME280;4991;43.566;27.820;2023-02-15T01:13:19;99958.13;;;2.07;100.00
9905;BME280;4991;43.566;27.820;2023-02-15T01:15:45;99963.50;;;2.07;100.00
9905;BME280;4991;43.566;27.820;2023-02-15T01:18:11;99957.78;;;2.04;100.00
9905;BME280;4991;43.566;27.820;2023-02-15T01:20:38;99965.06;;;1.97;100.00
9905;BME280;4991;43.566;27.820;2023-02-15T01:23:07;99958.72;;;1.91;100.00
9905;BME280;4991;43.566;27.820;2023-02-15T01:25:34;99954.16;;;1.92;100.00
9905;BME280;4991;43.566;27.820;2023-02-15T01:28:01;99953.56;;;1.90;100.00
9905;BME280;4991;43.566;27.820;2023-02-15T01:30:26;99952.34;;;1.86;100.00
9905;BME280;4991;43.566;27.820;2023-02-15T01:32:52;99950.53;;;1.80;100.00
9905;BME280;4991;43.566;27.820;2023-02-15T01:35:18;99952.22;;;1.74;100.00
9905;BME280;4991;43.566;27.820;2023-02-15T01:37:43;99952.66;;;1.71;100.00
9905;BME280;4991;43.566;27.820;2023-02-15T01:40:13;99955.75;;;1.75;100.00
9905;BME280;4991;43.566;27.820;2023-02-15T01:42:39;99954.56;;;1.71;100.00
9905;BME280;4991;43.566;27.820;2023-02-15T01:45:19;99953.16;;;1.62;100.00
9905;BME280;4991;43.566;27.820;2023-02-15T01:50:28;99952.00;;;1.51;100.00
9905;BME280;4991;43.566;27.820;2023-02-15T01:53:20;99956.59;;;1.44;100.00
9905;BME280;4991;43.566;27.820;2023-02-15T01:55:51;99946.72;;;1.38;100.00
9905;BME280;4991;43.566;27.820;2023-02-15T01:58:20;99947.38;;;1.33;100.00
9905;BME280;4991;43.566;27.820;2023-02-15T02:00:46;99955.81;;;1.37;100.00
9905;BME280;4991;43.566;27.820;2023-02-15T02:03:12;99957.50;;;1.31;100.00
9905;BME280;4991;43.566;27.820;2023-02-15T02:05:39;99955.69;;;1.25;100.00
9905;BME280;4991;43.566;27.820;2023-02-15T02:08:07;99965.59;;;1.25;100.00
9905;BME280;4991;43.566;27.820;2023-02-15T02:10:35;99964.75;;;1.24;100.00
9905;BME280;4991;43.566;27.820;2023-02-15T02:13:03;99963.97;;;1.24;100.00
9905;BME280;4991;43.566;27.820;2023-02-15T02:15:52;99964.56;;;1.26;100.00
9905;BME280;4991;43.566;27.820;2023-02-15T02:25:03;99966.63;;;1.24;100.00
9905;BME280;4991;43.566;27.820;2023-02-15T02:27:46;99961.06;;;1.25;100.00
9905;BME280;4991;43.566;27.820;2023-02-15T02:44:16;99964.38;;;1.21;100.00
9905;BME280;4991;43.566;27.820;2023-02-15T02:49:27;99967.66;;;1.23;100.00
9905;BME280;4991;43.566;27.820;2023-02-15T02:52:00;99972.63;;;1.26;100.00
9905;BME280;4991;43.566;27.820;2023-02-15T02:54:26;99972.19;;;1.29;100.00
9905;BME280;4991;43.566;27.820;2023-02-15T02:56:53;99963.91;;;1.30;100.00
9905;BME280;4991;43.566;27.820;2023-02-15T02:59:30;99978.31;;;1.36;100.00
9905;BME280;4991;43.566;27.820;2023-02-15T03:02:10;99967.56;;;1.43;100.00
9905;BME280;4991;43.566;27.820;2023-02-15T03:04:40;99980.38;;;1.41;100.00
9905;BME280;4991;43.566;27.820;2023-02-15T03:07:12;99984.41;;;1.50;100.00
9905;BME280;4991;43.566;27.820;2023-02-15T03:09:45;99985.03;;;1.52;100.00
9905;BME280;4991;43.566;27.820;2023-02-15T03:12:15;99984.81;;;1.53;100.00
9905;BME280;4991;43.566;27.820;2023-02-15T03:14:44;99995.34;;;1.55;100.00
9905;BME280;4991;43.566;27.820;2023-02-15T03:17:13;99985.44;;;1.55;100.00
9905;BME280;4991;43.566;27.820;2023-02-15T03:19:40;99984.59;;;1.55;100.00
9905;BME280;4991;43.566;27.820;2023-02-15T03:22:13;99993.88;;;1.59;100.00
9905;BME280;4991;43.566;27.820;2023-02-15T03:27:37;99990.56;;;1.57;100.00
9905;BME280;4991;43.566;27.820;2023-02-15T03:30:05;99996.59;;;1.52;100.00
9905;BME280;4991;43.566;27.820;2023-02-15T03:32:33;99989.78;;;1.50;100.00
9905;BME280;4991;43.566;27.820;2023-02-15T03:35:01;99999.91;;;1.48;100.00
9905;BME280;4991;43.566;27.820;2023-02-15T03:40:07;99998.09;;;1.42;100.00
9905;BME280;4991;43.566;27.820;2023-02-15T03:43:00;99997.09;;;1.36;100.00
9905;BME280;4991;43.566;27.820;2023-02-15T03:45:31;100007.81;;;1.36;100.00
9905;BME280;4991;43.566;27.820;2023-02-15T03:47:59;100005.53;;;1.40;100.00
9905;BME280;4991;43.566;27.820;2023-02-15T03:50:31;100003.50;;;1.35;100.00
9905;BME280;4991;43.566;27.820;2023-02-15T03:53:18;100008.03;;;1.34;100.00
9905;BME280;4991;43.566;27.820;2023-02-15T03:55:47;100009.53;;;1.30;100.00
9905;BME280;4991;43.566;27.820;2023-02-15T03:58:13;100001.31;;;1.25;100.00
9905;BME280;4991;43.566;27.820;2023-02-15T04:00:59;100003.75;;;1.27;100.00
9905;BME280;4991;43.566;27.820;2023-02-15T04:04:01;100007.13;;;1.16;100.00
9905;BME280;4991;43.566;27.820;2023-02-15T04:06:28;100013.09;;;1.18;100.00
9905;BME280;4991;43.566;27.820;2023-02-15T04:08:53;100011.66;;;1.15;100.00
9905;BME280;4991;43.566;27.820;2023-02-15T04:11:38;100014.34;;;1.15;100.00
9905;BME280;4991;43.566;27.820;2023-02-15T04:14:03;100014.84;;;0.99;100.00
9905;BME280;4991;43.566;27.820;2023-02-15T04:16:49;100014.22;;;0.97;100.00
9905;BME280;4991;43.566;27.820;2023-02-15T04:19:15;100018.56;;;0.92;100.00
9905;BME280;4991;43.566;27.820;2023-02-15T04:21:59;100018.59;;;0.85;100.00
9905;BME280;4991;43.566;27.820;2023-02-15T04:24:43;100017.75;;;0.85;100.00
9905;BME280;4991;43.566;27.820;2023-02-15T04:27:28;100017.16;;;0.83;100.00
9905;BME280;4991;43.566;27.820;2023-02-15T04:29:53;100017.59;;;0.73;100.00
9905;BME280;4991;43.566;27.820;2023-02-15T04:32:19;100017.81;;;0.72;100.00
9905;BME280;4991;43.566;27.820;2023-02-15T04:34:44;100025.03;;;0.65;100.00
9905;BME280;4991;43.566;27.820;2023-02-15T04:37:10;100033.91;;;0.65;100.00
9905;BME280;4991;43.566;27.820;2023-02-15T04:39:36;100031.66;;;0.62;100.00
9905;BME280;4991;43.566;27.820;2023-02-15T04:42:01;100031.03;;;0.60;100.00
9905;BME280;4991;43.566;27.820;2023-02-15T04:44:27;100030.19;;;0.60;100.00
9905;BME280;4991;43.566;27.820;2023-02-15T04:46:53;100030.63;;;0.57;100.00
9905;BME280;4991;43.566;27.820;2023-02-15T04:49:18;100037.84;;;0.56;100.00
9905;BME280;4991;43.566;27.820;2023-02-15T04:51:44;100038.44;;;0.58;100.00
9905;BME280;4991;43.566;27.820;2023-02-15T04:54:09;100042.38;;;0.62;100.00
9905;BME280;4991;43.566;27.820;2023-02-15T04:56:35;100046.28;;;0.60;100.00
9905;BME280;4991;43.566;27.820;2023-02-15T04:59:03;100044.84;;;0.64;100.00
9905;BME280;4991;43.566;27.820;2023-02-15T05:01:29;100052.25;;;0.62;100.00
9905;BME280;4991;43.566;27.820;2023-02-15T05:03:54;100061.13;;;0.62;100.00
9905;BME280;4991;43.566;27.820;2023-02-15T05:06:20;100065.44;;;0.63;100.00
9905;BME280;4991;43.566;27.820;2023-02-15T05:08:46;100070.22;;;0.61;100.00
9905;BME280;4991;43.566;27.820;2023-02-15T05:11:11;100077.00;;;0.64;100.00
9905;BME280;4991;43.566;27.820;2023-02-15T05:13:37;100076.19;;;0.63;100.00
9905;BME280;4991;43.566;27.820;2023-02-15T05:16:03;100080.53;;;0.64;100.00
9905;BME280;4991;43.566;27.820;2023-02-15T05:18:28;100089.56;;;0.63;100.00
9905;BME280;4991;43.566;27.820;2023-02-15T05:20:54;100085.47;;;0.61;100.00
9905;BME280;4991;43.566;27.820;2023-02-15T05:23:20;100084.63;;;0.60;100.00
9905;BME280;4991;43.566;27.820;2023-02-15T05:25:49;100081.13;;;0.60;100.00
9905;BME280;4991;43.566;27.820;2023-02-15T05:28:35;100090.41;;;0.57;100.00
9905;BME280;4991;43.566;27.820;2023-02-15T05:31:07;100094.16;;;0.56;100.00
9905;BME280;4991;43.566;27.820;2023-02-15T05:33:35;100100.94;;;0.52;100.00
9905;BME280;4991;43.566;27.820;2023-02-15T05:36:02;100094.34;;;0.55;100.00
9905;BME280;4991;43.566;27.820;2023-02-15T05:38:27;100101.97;;;0.51;100.00
9905;BME280;4991;43.566;27.820;2023-02-15T05:40:53;100110.44;;;0.61;100.00
9905;BME280;4991;43.566;27.820;2023-02-15T05:43:19;100107.94;;;0.60;100.00
9905;BME280;4991;43.566;27.820;2023-02-15T05:45:56;100114.34;;;0.59;100.00
9905;BME280;4991;43.566;27.820;2023-02-15T05:48:24;100107.94;;;0.60;100.00
9905;BME280;4991;43.566;27.820;2023-02-15T05:50:59;100108.94;;;0.72;100.00
9905;BME280;4991;43.566;27.820;2023-02-15T05:53:26;100123.19;;;0.79;100.00
9905;BME280;4991;43.566;27.820;2023-02-15T05:55:52;100124.63;;;0.88;100.00
9905;BME280;4991;43.566;27.820;2023-02-15T05:58:19;100131.41;;;0.97;100.00
9905;BME280;4991;43.566;27.820;2023-02-15T06:00:45;100132.19;;;1.10;100.00
9905;BME280;4991;43.566;27.820;2023-02-15T06:03:12;100131.97;;;1.12;100.00
9905;BME280;4991;43.566;27.820;2023-02-15T06:05:37;100133.19;;;1.22;100.00
9905;BME280;4991;43.566;27.820;2023-02-15T06:08:03;100138.75;;;1.27;100.00
9905;BME280;4991;43.566;27.820;2023-02-15T06:10:29;100138.94;;;1.33;100.00
9905;BME280;4991;43.566;27.820;2023-02-15T06:12:54;100143.66;;;1.44;100.00
9905;BME280;4991;43.566;27.820;2023-02-15T06:15:20;100132.47;;;1.53;100.00
9905;BME280;4991;43.566;27.820;2023-02-15T06:17:46;100137.78;;;1.60;100.00
9905;BME280;4991;43.566;27.820;2023-02-15T06:20:12;100139.00;;;1.70;100.00
9905;BME280;4991;43.566;27.820;2023-02-15T06:22:37;100133.63;;;1.70;100.00
9905;BME280;4991;43.566;27.820;2023-02-15T06:25:03;100132.75;;;1.76;100.00
9905;BME280;4991;43.566;27.820;2023-02-15T06:27:30;100140.19;;;1.81;100.00
9905;BME280;4991;43.566;27.820;2023-02-15T06:29:55;100143.66;;;1.88;100.00
9905;BME280;4991;43.566;27.820;2023-02-15T06:32:21;100142.75;;;2.00;100.00
9905;BME280;4991;43.566;27.820;2023-02-15T06:34:47;100144.81;;;2.05;100.00
9905;BME280;4991;43.566;27.820;2023-02-15T06:37:12;100146.38;;;2.12;100.00
9905;BME280;4991;43.566;27.820;2023-02-15T06:39:38;100154.22;;;2.20;100.00
9905;BME280;4991;43.566;27.820;2023-02-15T06:42:03;100157.94;;;2.19;100.00
9905;BME280;4991;43.566;27.820;2023-02-15T06:44:29;100162.03;;;2.28;100.00
9905;BME280;4991;43.566;27.820;2023-02-15T06:46:55;100161.69;;;2.43;100.00
9905;BME280;4991;43.566;27.820;2023-02-15T06:49:20;100160.88;;;2.42;100.00
9905;BME280;4991;43.566;27.820;2023-02-15T06:51:46;100156.94;;;2.45;100.00
9905;BME280;4991;43.566;27.820;2023-02-15T06:54:11;100164.16;;;2.44;100.00
9905;BME280;4991;43.566;27.820;2023-02-15T06:56:37;100154.25;;;2.45;100.00
9905;BME280;4991;43.566;27.820;2023-02-15T06:59:04;100164.44;;;2.61;100.00
9905;BME280;4991;43.566;27.820;2023-02-15T07:01:30;100162.75;;;2.67;100.00
9905;BME280;4991;43.566;27.820;2023-02-15T07:03:55;100162.25;;;2.76;100.00
9905;BME280;4991;43.566;27.820;2023-02-15T07:06:21;100155.50;;;2.67;100.00
9905;BME280;4991;43.566;27.820;2023-02-15T07:08:46;100162.16;;;2.64;100.00
9905;BME280;4991;43.566;27.820;2023-02-15T07:11:12;100165.63;;;2.47;100.00
9905;BME280;4991;43.566;27.820;2023-02-15T07:13:56;100160.22;;;2.47;100.00
9905;BME280;4991;43.566;27.820;2023-02-15T07:16:22;100162.09;;;2.46;100.00
9905;BME280;4991;43.566;27.820;2023-02-15T07:18:47;100170.50;;;2.56;100.00
9905;BME280;4991;43.566;27.820;2023-02-15T07:21:13;100153.03;;;2.65;100.00
9905;BME280;4991;43.566;27.820;2023-02-15T07:23:39;100165.94;;;2.82;100.00
9905;BME280;4991;43.566;27.820;2023-02-15T07:26:06;100156.97;;;2.88;100.00
9905;BME280;4991;43.566;27.820;2023-02-15T07:28:33;100152.22;;;2.90;100.00
9905;BME280;4991;43.566;27.820;2023-02-15T07:31:01;100157.97;;;2.93;100.00
9905;BME280;4991;43.566;27.820;2023-02-15T07:33:27;100152.44;;;2.88;100.00
9905;BME280;4991;43.566;27.820;2023-02-15T07:35:56;100166.53;;;2.84;100.00
9905;BME280;4991;43.566;27.820;2023-02-15T07:38:24;100158.72;;;3.00;100.00
9905;BME280;4991;43.566;27.820;2023-02-15T07:40:50;100155.59;;;3.03;100.00
9905;BME280;4991;43.566;27.820;2023-02-15T07:43:16;100153.56;;;2.99;100.00
9905;BME280;4991;43.566;27.820;2023-02-15T07:45:42;100159.59;;;2.94;100.00
9905;BME280;4991;43.566;27.820;2023-02-15T07:48:07;100161.69;;;2.92;100.00
9905;BME280;4991;43.566;27.820;2023-02-15T07:50:33;100162.31;;;2.94;100.00
9905;BME280;4991;43.566;27.820;2023-02-15T07:53:02;100155.00;;;3.01;100.00
9905;BME280;4991;43.566;27.820;2023-02-15T07:55:28;100159.88;;;3.11;100.00
9905;BME280;4991;43.566;27.820;2023-02-15T07:57:53;100166.22;;;3.16;100.00
9905;BME280;4991;43.566;27.820;2023-02-15T08:00:21;100161.88;;;3.15;100.00
9905;BME280;4991;43.566;27.820;2023-02-15T08:02:54;100159.50;;;3.25;100.00
9905;BME280;4991;43.566;27.820;2023-02-15T08:05:40;100169.53;;;3.18;100.00
9905;BME280;4991;43.566;27.820;2023-02-15T08:08:07;100161.00;;;3.21;100.00
9905;BME280;4991;43.566;27.820;2023-02-15T08:10:33;100177.09;;;3.28;100.00
9905;BME280;4991;43.566;27.820;2023-02-15T08:13:19;100172.25;;;3.36;100.00
9905;BME280;4991;43.566;27.820;2023-02-15T08:15:49;100170.13;;;3.38;100.00
9905;BME280;4991;43.566;27.820;2023-02-15T08:18:15;100165.56;;;3.39;100.00
9905;BME280;4991;43.566;27.820;2023-02-15T08:20:40;100170.34;;;3.37;100.00
9905;BME280;4991;43.566;27.820;2023-02-15T08:23:06;100175.22;;;3.28;100.00
9905;BME280;4991;43.566;27.820;2023-02-15T08:25:31;100168.94;;;3.34;100.00
9905;BME280;4991;43.566;27.820;2023-02-15T08:27:57;100157.94;;;3.36;100.00
9905;BME280;4991;43.566;27.820;2023-02-15T08:30:23;100166.09;;;3.47;100.00
9905;BME280;4991;43.566;27.820;2023-02-15T08:32:48;100155.84;;;3.56;100.00
9905;BME280;4991;43.566;27.820;2023-02-15T08:35:15;100162.38;;;3.66;100.00
9905;BME280;4991;43.566;27.820;2023-02-15T08:37:41;100165.63;;;3.68;100.00
9905;BME280;4991;43.566;27.820;2023-02-15T08:40:09;100158.66;;;3.79;100.00
9905;BME280;4991;43.566;27.820;2023-02-15T08:42:34;100156.81;;;3.79;100.00
9905;BME280;4991;43.566;27.820;2023-02-15T08:45:00;100160.59;;;3.90;100.00
9905;BME280;4991;43.566;27.820;2023-02-15T08:47:26;100153.63;;;4.01;100.00
9905;BME280;4991;43.566;27.820;2023-02-15T08:49:52;100166.69;;;4.15;100.00
9905;BME280;4991;43.566;27.820;2023-02-15T08:52:17;100154.72;;;4.11;100.00
9905;BME280;4991;43.566;27.820;2023-02-15T08:54:43;100161.19;;;4.22;100.00
9905;BME280;4991;43.566;27.820;2023-02-15T08:57:08;100164.47;;;4.24;100.00
9905;BME280;4991;43.566;27.820;2023-02-15T08:59:35;100177.28;;;4.28;100.00
9905;BME280;4991;43.566;27.820;2023-02-15T09:02:01;100153.47;;;4.25;100.00
9905;BME280;4991;43.566;27.820;2023-02-15T09:04:26;100163.25;;;4.38;100.00
9905;BME280;4991;43.566;27.820;2023-02-15T09:06:53;100154.47;;;4.42;100.00
9905;BME280;4991;43.566;27.820;2023-02-15T09:09:20;100170.81;;;4.59;100.00
9905;BME280;4991;43.566;27.820;2023-02-15T09:11:49;100170.94;;;4.75;100.00
9905;BME280;4991;43.566;27.820;2023-02-15T09:14:17;100165.66;;;4.69;100.00
9905;BME280;4991;43.566;27.820;2023-02-15T09:16:46;100167.53;;;4.68;100.00
9905;BME280;4991;43.566;27.820;2023-02-15T09:19:14;100159.44;;;4.68;100.00
9905;BME280;4991;43.566;27.820;2023-02-15T09:21:40;100147.03;;;4.79;100.00
9905;BME280;4991;43.566;27.820;2023-02-15T09:24:08;100162.41;;;5.01;100.00
9905;BME280;4991;43.566;27.820;2023-02-15T09:26:36;100150.53;;;5.02;100.00
9905;BME280;4991;43.566;27.820;2023-02-15T09:29:03;100156.75;;;5.26;100.00
9905;BME280;4991;43.566;27.820;2023-02-15T09:31:36;100162.47;;;5.53;100.00
9905;BME280;4991;43.566;27.820;2023-02-15T09:34:02;100144.22;;;5.83;100.00
9905;BME280;4991;43.566;27.820;2023-02-15T09:36:36;100139.16;;;5.86;100.00
9905;BME280;4991;43.566;27.820;2023-02-15T09:39:12;100149.69;;;5.99;100.00
9905;BME280;4991;43.566;27.820;2023-02-15T10:10:34;100146.19;;;6.15;100.00
9905;BME280;4991;43.566;27.820;2023-02-15T10:13:08;100133.63;;;6.54;100.00
9905;BME280;4991;43.566;27.820;2023-02-15T10:19:16;100136.84;;;5.67;100.00
9905;BME280;4991;43.566;27.820;2023-02-15T10:21:58;100127.34;;;5.53;100.00
9905;BME280;4991;43.566;27.820;2023-02-15T10:27:19;100127.34;;;7.58;100.00
9905;BME280;4991;43.566;27.820;2023-02-15T10:32:59;100115.19;;;6.34;100.00
9905;BME280;4991;43.566;27.820;2023-02-15T10:35:58;100127.78;;;6.29;100.00
9905;BME280;4991;43.566;27.820;2023-02-15T10:38:39;100131.06;;;5.75;100.00
9905;BME280;4991;43.566;27.820;2023-02-15T10:41:35;100129.22;;;5.64;100.00
9905;BME280;4991;43.566;27.820;2023-02-15T10:44:08;100123.63;;;5.82;100.00
9905;BME280;4991;43.566;27.820;2023-02-15T11:05:44;100113.50;;;7.00;100.00
9905;BME280;4991;43.566;27.820;2023-02-15T11:08:15;100109.78;;;6.68;100.00
9905;BME280;4991;43.566;27.820;2023-02-15T11:10:49;100114.28;;;6.62;100.00
9905;BME280;4991;43.566;27.820;2023-02-15T11:13:19;100124.69;;;6.53;100.00
9905;BME280;4991;43.566;27.820;2023-02-15T11:16:13;100126.91;;;6.23;100.00
9905;BME280;4991;43.566;27.820;2023-02-15T11:21:34;100117.00;;;6.62;100.00
9905;BME280;4991;43.566;27.820;2023-02-15T11:24:12;100121.28;;;6.58;100.00
9905;BME280;4991;43.566;27.820;2023-02-15T11:26:45;100125.34;;;6.61;100.00
9905;BME280;4991;43.566;27.820;2023-02-15T11:29:22;100105.91;;;6.80;100.00
9905;BME280;4991;43.566;27.820;2023-02-15T11:31:54;100112.72;;;6.83;100.00
9905;BME280;4991;43.566;27.820;2023-02-15T11:34:33;100116.88;;;7.66;100.00
9905;BME280;4991;43.566;27.820;2023-02-15T11:37:12;100109.69;;;8.25;100.00
9905;BME280;4991;43.566;27.820;2023-02-15T11:39:41;100112.47;;;7.39;100.00
9905;BME280;4991;43.566;27.820;2023-02-15T11:42:14;100106.50;;;7.20;100.00
9905;BME280;4991;43.566;27.820;2023-02-15T11:47:37;100093.41;;;9.35;100.00
9905;BME280;4991;43.566;27.820;2023-02-15T11:50:02;100092.69;;;9.03;100.00
9905;BME280;4991;43.566;27.820;2023-02-15T11:52:28;100094.81;;;8.96;100.00
9905;BME280;4991;43.566;27.820;2023-02-15T11:54:54;100087.41;;;8.86;100.00
9905;BME280;4991;43.566;27.820;2023-02-15T11:57:40;100077.94;;;9.41;100.00
9905;BME280;4991;43.566;27.820;2023-02-15T12:00:36;100077.78;;;9.67;100.00
9905;BME280;4991;43.566;27.820;2023-02-15T12:03:22;100081.22;;;11.89;100.00
9905;BME280;4991;43.566;27.820;2023-02-15T12:05:56;100070.91;;;12.58;100.00
9905;BME280;4991;43.566;27.820;2023-02-15T12:08:34;100083.56;;;12.10;100.00
9905;BME280;4991;43.566;27.820;2023-02-15T12:11:19;100072.09;;;11.39;100.00
9905;BME280;4991;43.566;27.820;2023-02-15T12:13:59;100069.88;;;11.51;100.00
9905;BME280;4991;43.566;27.820;2023-02-15T12:16:26;100063.53;;;10.67;100.00
9905;BME280;4991;43.566;27.820;2023-02-15T12:18:55;100060.25;;;10.60;100.00
9905;BME280;4991;43.566;27.820;2023-02-15T12:21:28;100064.34;;;10.22;100.00
9905;BME280;4991;43.566;27.820;2023-02-15T12:23:58;100049.88;;;10.87;100.00
9905;BME280;4991;43.566;27.820;2023-02-15T12:26:31;100057.53;;;11.69;100.00
9905;BME280;4991;43.566;27.820;2023-02-15T12:29:01;100054.06;;;11.53;100.00
9905;BME280;4991;43.566;27.820;2023-02-15T12:31:44;100047.22;;;12.10;100.00
9905;BME280;4991;43.566;27.820;2023-02-15T12:34:21;100052.22;;;12.70;98.97
9905;BME280;4991;43.566;27.820;2023-02-15T12:36:53;100051.59;;;13.07;96.30
9905;BME280;4991;43.566;27.820;2023-02-15T12:39:30;100051.84;;;13.10;85.97
9905;BME280;4991;43.566;27.820;2023-02-15T12:44:28;100052.31;;;13.17;87.09
9905;BME280;4991;43.566;27.820;2023-02-15T12:49:24;100066.53;;;12.57;88.37
9905;BME280;4991;43.566;27.820;2023-02-15T12:51:54;100052.16;;;12.46;88.07
9905;BME280;4991;43.566;27.820;2023-02-15T12:54:41;100056.09;;;11.87;91.50
9905;BME280;4991;43.566;27.820;2023-02-15T12:59:51;100060.44;;;10.03;100.00
9905;BME280;4991;43.566;27.820;2023-02-15T13:02:47;100054.19;;;9.21;100.00
9905;BME280;4991;43.566;27.820;2023-02-15T13:05:35;100061.00;;;8.77;100.00
9905;BME280;4991;43.566;27.820;2023-02-15T13:08:19;100058.31;;;8.82;100.00
9905;BME280;4991;43.566;27.820;2023-02-15T13:11:10;100056.44;;;9.34;100.00
9905;BME280;4991;43.566;27.820;2023-02-15T13:14:00;100059.19;;;10.56;100.00
9905;BME280;4991;43.566;27.820;2023-02-15T13:16:33;100052.88;;;10.96;100.00
9905;BME280;4991;43.566;27.820;2023-02-15T13:19:06;100053.19;;;11.63;100.00
9905;BME280;4991;43.566;27.820;2023-02-15T13:21:39;100057.31;;;12.09;98.09
9905;BME280;4991;43.566;27.820;2023-02-15T13:24:35;100052.69;;;12.77;88.39
9905;BME280;4991;43.566;27.820;2023-02-15T13:26:59;100061.69;;;12.49;86.47
9905;BME280;4991;43.566;27.820;2023-02-15T13:29:33;100053.59;;;12.67;80.20
9905;BME280;4991;43.566;27.820;2023-02-15T13:34:54;100048.41;;;12.66;69.38
9905;BME280;4991;43.566;27.820;2023-02-15T13:40:37;100042.47;;;12.87;72.78
9905;BME280;4991;43.566;27.820;2023-02-15T13:51:09;100061.09;;;13.14;80.02
9905;BME280;4991;43.566;27.820;2023-02-15T13:54:05;100041.66;;;12.87;78.12
9905;BME280;4991;43.566;27.820;2023-02-15T13:57:05;100052.34;;;11.73;82.18
9905;BME280;4991;43.566;27.820;2023-02-15T14:02:37;100050.13;;;13.19;80.80
9905;BME280;4991;43.566;27.820;2023-02-15T14:10:38;100045.00;;;11.63;73.93
9905;BME280;4991;43.566;27.820;2023-02-15T14:13:33;100044.34;;;11.27;78.89
9905;BME280;4991;43.566;27.820;2023-02-15T14:16:11;100043.34;;;11.77;77.74
9905;BME280;4991;43.566;27.820;2023-02-15T14:18:53;100053.84;;;11.35;79.77
9905;BME280;4991;43.566;27.820;2023-02-15T14:21:36;100040.84;;;11.07;82.40
9905;BME280;4991;43.566;27.820;2023-02-15T14:35:03;100048.75;;;9.98;100.00
9905;BME280;4991;43.566;27.820;2023-02-15T14:40:45;100062.66;;;8.83;100.00
9905;BME280;4991;43.566;27.820;2023-02-15T14:49:25;100054.25;;;8.84;100.00
9905;BME280;4991;43.566;27.820;2023-02-15T14:51:54;100057.94;;;8.68;100.00
9905;BME280;4991;43.566;27.820;2023-02-15T15:07:13;100064.44;;;7.56;100.00
9905;BME280;4991;43.566;27.820;2023-02-15T15:09:43;100066.72;;;7.42;100.00
9905;BME280;4991;43.566;27.820;2023-02-15T15:14:53;100074.00;;;7.20;100.00
9905;BME280;4991;43.566;27.820;2023-02-15T15:22:34;100065.66;;;6.50;100.00
9905;BME280;4991;43.566;27.820;2023-02-15T15:28:05;100066.56;;;6.23;100.00
9905;BME280;4991;43.566;27.820;2023-02-15T15:46:56;100089.50;;;5.13;100.00
9905;BME280;4991;43.566;27.820;2023-02-15T15:49:31;100084.94;;;4.90;100.00
9905;BME280;4991;43.566;27.820;2023-02-15T15:52:01;100094.91;;;4.90;100.00
9905;BME280;4991;43.566;27.820;2023-02-15T15:54:28;100091.63;;;4.88;100.00
9905;BME280;4991;43.566;27.820;2023-02-15T15:57:00;100087.16;;;4.70;100.00
9905;BME280;4991;43.566;27.820;2023-02-15T15:59:29;100093.97;;;4.73;100.00
9905;BME280;4991;43.566;27.820;2023-02-15T16:01:56;100102.41;;;4.65;100.00
9905;BME280;4991;43.566;27.820;2023-02-15T16:04:31;100106.84;;;4.59;100.00
9905;BME280;4991;43.566;27.820;2023-02-15T16:07:03;100097.94;;;4.47;100.00
9905;BME280;4991;43.566;27.820;2023-02-15T16:09:38;100101.66;;;4.35;100.00
9905;BME280;4991;43.566;27.820;2023-02-15T16:12:04;100109.72;;;4.23;100.00
9905;BME280;4991;43.566;27.820;2023-02-15T16:14:40;100104.91;;;4.14;100.00
9905;BME280;4991;43.566;27.820;2023-02-15T16:17:14;100110.97;;;3.97;100.00
9905;BME280;4991;43.566;27.820;2023-02-15T16:19:43;100108.13;;;3.92;100.00
9905;BME280;4991;43.566;27.820;2023-02-15T16:22:18;100123.78;;;3.84;100.00
9905;BME280;4991;43.566;27.820;2023-02-15T16:25:21;100114.22;;;3.70;100.00
9905;BME280;4991;43.566;27.820;2023-02-15T16:27:52;100116.47;;;3.55;100.00